Latest Weather Observations for Busselton Airport

IDW60801

Issued at 10:33 am WST Monday 23 October 2017 (issued every 30 minutes, with the page automatically refreshed every 10 minutes)

About weather observations | Map of weather stations | Latest weather observations for WA | Other Formats
Station Details ID: 009603 Name: BUSSELTON AERO Lat: -33.69 Lon: 115.40 Height: 16.3 m
Data from the previous 72 hours. | See also: Recent months at Busselton Airport
Date/Time
WST
Temp
°C
App
Temp
°C
Dew
Point
°C
Rel
Hum
%
Delta-T
°C
Wind Press
QNH
hPa
Press
MSL
hPa
Rain since
9am
mm
Dir  Spd
km/h
Gust
km/h
Spd
kts
Gust
kts
23/10:30am 18.7 16.6 13.6 72 2.9 SSW 17 20 9 11 1015.2 1015.2 0.0
23/10:00am 19.3 18.1 13.9 71 3.1 SE 13 19 7 10 1015.1 1015.1 0.0
23/09:30am 18.3 16.3 14.0 76 2.5 S 17 22 9 12 1015.4 1015.4 0.0
23/09:00am 17.4 15.3 13.5 78 2.2 SW 17 22 9 12 1015.4 1015.4 0.0
23/08:30am 17.6 16.8 14.1 80 2.0 SSW 11 17 6 9 1015.2 1015.2 0.0
23/08:00am 17.3 16.9 14.0 81 1.9 SSW 9 15 5 8 1015.1 1015.1 0.0
23/07:30am 16.6 15.4 13.9 84 1.5 SW 13 19 7 10 1015.2 1015.2 0.0
23/07:00am 16.3 15.0 13.8 85 1.4 SW 13 17 7 9 1015.0 1015.0 0.0
23/06:30am 16.4 15.6 13.9 85 1.4 SSW 11 15 6 8 1014.6 1014.6 0.0
23/06:00am 16.2 15.0 13.9 86 1.3 SSW 13 17 7 9 1014.5 1014.5 0.0
23/05:30am 16.1 14.8 13.8 86 1.3 SSW 13 17 7 9 1014.1 1014.1 0.0
23/05:00am 16.2 13.8 13.7 85 1.4 SSW 19 24 10 13 1013.8 1013.8 0.0
23/04:30am 16.1 14.8 13.8 86 1.3 SSW 13 19 7 10 1013.6 1013.6 0.0
23/04:00am 16.1 13.7 13.8 86 1.3 S 19 24 10 13 1013.5 1013.5 0.0
23/03:30am 16.0 14.7 13.8 87 1.2 S 13 20 7 11 1013.3 1013.3 0.0
23/03:00am 16.0 14.4 14.0 88 1.1 S 15 20 8 11 1013.2 1013.2 0.0
23/02:30am 15.9 13.0 13.9 88 1.1 S 22 30 12 16 1013.2 1013.2 0.0
23/02:00am 16.0 13.7 14.0 88 1.1 S 19 24 10 13 1013.2 1013.2 0.0
23/01:30am 16.0 14.1 14.2 89 1.0 S 17 26 9 14 1013.2 1013.2 0.0
23/01:00am 15.6 15.2 14.1 91 0.8 SSW 9 15 5 8 1013.2 1013.2 0.0
23/12:30am 15.6 14.1 14.1 91 0.8 S 15 20 8 11 1013.2 1013.2 0.0
23/12:00am 15.4 14.6 13.9 91 0.8 S 11 13 6 7 1013.5 1013.5 0.0
 
Date/Time
WST
Temp
°C
App
Temp
°C
Dew
Point
°C
Rel
Hum
%
Delta-T
°C
Wind Press
QNH
hPa
Press
MSL
hPa
Rain since
9am
mm
Dir  Spd
km/h
Gust
km/h
Spd
kts
Gust
kts
22/11:30pm 15.9 14.8 14.4 91 0.9 SSW 13 17 7 9 1013.6 1013.6 0.0
22/11:00pm 15.5 14.7 14.0 91 0.8 S 11 13 6 7 1013.7 1013.7 0.0
22/10:30pm 15.8 14.6 14.0 89 1.0 S 13 17 7 9 1013.9 1013.9 0.0
22/10:00pm 16.3 15.2 14.3 88 1.1 S 13 19 7 10 1014.2 1014.2 0.0
22/09:30pm 16.8 15.4 14.4 86 1.4 SSW 15 20 8 11 1014.2 1014.2 0.0
22/09:00pm 17.2 14.4 14.3 83 1.7 SSW 22 28 12 15 1014.2 1014.2 0.0
22/08:30pm 18.7 17.6 13.1 70 3.2 SW 11 15 6 8 1013.8 1013.8 0.0
22/08:00pm 18.9 18.6 13.3 70 3.2 SW 7 11 4 6 1013.4 1013.4 0.0
22/07:30pm 19.4 17.9 13.1 67 3.6 SSW 13 17 7 9 1013.1 1013.1 0.0
22/07:00pm 20.5 19.5 13.5 64 4.0 SW 11 15 6 8 1012.9 1012.9 0.0
22/06:30pm 22.4 21.4 14.5 61 4.6 SW 13 17 7 9 1012.5 1012.5 0.0
22/06:00pm 23.3 21.6 14.6 58 5.2 WSW 17 22 9 12 1012.2 1012.2 0.0
22/05:30pm 23.6 21.7 14.3 56 5.5 WSW 17 24 9 13 1012.1 1012.1 0.0
22/05:00pm 24.6 22.9 14.7 54 5.9 WSW 17 24 9 13 1011.8 1011.8 0.0
22/04:30pm 25.0 23.7 14.8 53 6.1 W 15 20 8 11 1011.7 1011.7 0.0
22/04:00pm 25.5 24.1 13.4 47 7.1 NW 13 17 7 9 1011.4 1011.4 0.0
22/03:30pm 25.6 23.9 14.7 51 6.5 NW 17 24 9 13 1011.4 1011.4 0.0
22/03:00pm 26.2 24.7 14.3 48 7.1 WNW 15 19 8 10 1011.4 1011.4 0.0
22/02:30pm 26.2 24.1 13.7 46 7.4 WNW 17 22 9 12 1011.4 1011.4 0.0
22/02:00pm 25.6 23.2 13.8 48 7.0 NW 19 24 10 13 1011.4 1011.4 0.0
22/01:30pm 25.9 23.8 13.7 47 7.2 NW 17 24 9 13 1011.6 1011.6 0.0
22/01:00pm 25.9 24.2 13.7 47 7.2 NNW 15 20 8 11 1011.7 1011.7 0.0
22/12:30pm 26.0 23.6 12.5 43 7.8 NNW 17 20 9 11 1011.6 1011.6 0.0
22/12:00pm 26.1 25.3 13.9 47 7.2 N 11 19 6 10 1011.7 1011.7 0.0
22/11:30am 25.7 25.1 14.5 50 6.7 ENE 11 15 6 8 1012.0 1012.0 0.0
22/11:00am 25.8 24.7 15.2 52 6.4 ENE 15 20 8 11 1012.1 1012.1 0.0
22/10:30am 25.5 23.6 14.3 50 6.7 ENE 17 24 9 13 1012.4 1012.4 0.0
22/10:00am 24.8 24.8 15.1 54 5.8 ENE 9 15 5 8 1012.7 1012.7 0.0
22/09:30am 24.4 23.5 14.8 55 5.7 E 13 19 7 10 1012.8 1012.8 0.0
22/09:00am 23.4 22.6 15.2 60 4.9 E 13 19 7 10 1012.7 1012.7 0.2
22/08:30am 21.8 21.2 14.7 64 4.2 ESE 11 15 6 8 1012.5 1012.5 0.2
22/08:00am 20.6 20.0 14.5 68 3.6 ESE 11 17 6 9 1012.4 1012.4 0.2
22/07:30am 19.8 19.1 14.4 71 3.1 ESE 11 13 6 7 1012.2 1012.2 0.2
22/07:00am 18.2 19.4 14.9 81 1.9 SSE 2 7 1 4 1012.4 1012.4 0.2
22/06:30am 16.8 15.9 13.7 82 1.8 SSE 11 17 6 9 1012.3 1012.3 0.2
22/06:00am 16.7 14.7 14.0 84 1.5 SE 17 20 9 11 1012.4 1012.4 0.2
22/05:30am 16.6 15.2 13.3 81 1.8 ESE 13 17 7 9 1013.4 1013.4 0.2
22/05:00am 17.6 14.1 13.3 76 2.4 SSE 24 33 13 18 1013.4 1013.4 0.2
22/04:30am 18.4 15.1 11.7 65 3.7 SE 20 28 11 15 1014.1 1014.1 0.0
22/04:00am 18.8 15.5 11.6 63 4.0 SSE 20 26 11 14 1013.9 1013.9 0.0
22/03:30am 19.2 15.9 11.5 61 4.2 S 20 24 11 13 1014.2 1014.2 0.0
22/03:00am 18.3 15.4 11.1 63 3.9 S 17 20 9 11 1014.1 1014.1 0.0
22/02:30am 18.1 16.0 11.0 63 3.8 SSW 13 15 7 8 1013.7 1013.7 0.0
22/02:00am 17.1 15.3 10.7 66 3.4 S 11 13 6 7 1013.3 1013.3 0.0
22/01:30am 18.8 16.5 10.6 59 4.4 SSW 13 19 7 10 1013.2 1013.2 0.0
22/01:00am 18.3 16.6 11.1 63 3.9 SSW 11 19 6 10 1013.2 1013.2 0.0
22/12:30am 19.0 17.2 10.8 59 4.4 E 11 13 6 7 1012.8 1012.8 0.0
22/12:00am 19.5 17.3 10.8 57 4.7 E 13 15 7 8 1013.2 1013.2 0.0
 
Date/Time
WST
Temp
°C
App
Temp
°C
Dew
Point
°C
Rel
Hum
%
Delta-T
°C
Wind Press
QNH
hPa
Press
MSL
hPa
Rain since
9am
mm
Dir  Spd
km/h
Gust
km/h
Spd
kts
Gust
kts
21/11:30pm 21.6 18.9 10.4 49 6.1 E 15 19 8 10 1013.4 1013.4 0.0
21/11:00pm 21.0 18.3 10.5 51 5.7 E 15 19 8 10 1013.6 1013.6 0.0
21/10:30pm 20.5 17.3 11.2 55 5.1 E 19 20 10 11 1013.8 1013.8 0.0
21/10:00pm 20.8 18.5 10.6 52 5.6 ESE 13 17 7 9 1014.4 1014.4 0.0
21/09:30pm 21.1 19.6 10.6 51 5.7 SE 9 11 5 6 1014.7 1014.7 0.0
21/09:00pm 22.1 19.5 9.3 44 6.9 E 13 19 7 10 1014.7 1014.7 0.0
21/08:30pm 20.1 17.7 10.2 53 5.3 E 13 17 7 9 1014.4 1014.4 0.0
21/08:00pm 21.0 18.4 9.3 47 6.2 E 13 17 7 9 1014.6 1014.6 0.0
21/07:30pm 21.6 18.6 9.2 45 6.6 E 15 20 8 11 1014.4 1014.4 0.0
21/07:00pm 22.0 20.2 9.5 45 6.7 ENE 9 13 5 7 1014.4 1014.4 0.0
21/06:30pm 23.0 19.8 10.1 44 7.1 E 17 20 9 11 1014.2 1014.2 0.0
21/06:00pm 25.2 21.6 9.9 38 8.4 ENE 19 26 10 14 1014.2 1014.2 0.0
21/05:30pm 27.1 23.1 10.3 35 9.4 E 22 37 12 20 1014.1 1014.1 0.0
21/05:00pm 27.9 23.2 10.6 34 9.8 E 26 35 14 19 1014.1 1014.1 0.0
21/04:30pm 28.1 23.3 11.6 36 9.5 E 28 35 15 19 1014.5 1014.5 0.0
21/04:00pm 27.7 23.0 12.1 38 9.0 ENE 28 37 15 20 1015.1 1015.1 0.0
21/03:30pm 27.9 24.7 13.1 40 8.7 E 22 32 12 17 1015.6 1015.6 0.0
21/03:00pm 28.1 23.7 11.6 36 9.5 E 26 35 14 19 1016.3 1016.3 0.0
21/02:30pm 28.1 24.9 13.2 39 8.8 E 22 30 12 16 1016.7 1016.7 0.0
21/02:00pm 27.1 23.8 12.7 41 8.4 E 22 30 12 16 1017.2 1017.2 0.0
21/01:30pm 27.7 25.2 14.0 43 8.2 E 20 28 11 15 1017.4 1017.4 0.0
21/01:00pm 26.4 23.5 12.8 43 7.9 E 20 28 11 15 1017.9 1017.9 0.0
21/12:30pm 26.3 22.6 12.7 43 7.9 ESE 24 30 13 16 1018.1 1018.1 0.0
21/12:00pm 24.9 21.7 11.8 44 7.4 E 20 28 11 15 1018.9 1018.9 0.0
21/11:30am 24.3 22.0 11.9 45 7.0 E 15 20 8 11 1019.5 1019.5 0.0
21/11:00am 24.6 21.1 10.8 42 7.7 E 20 28 11 15 1019.7 1019.7 0.0
21/10:30am 23.9 20.5 10.6 43 7.4 E 19 24 10 13 1020.1 1020.1 0.0
21/10:00am 23.1 20.1 10.5 45 6.9 E 17 24 9 13 1020.8 1020.8 0.0
21/09:30am 22.0 19.1 11.1 50 6.0 E 17 22 9 12 1021.0 1021.0 0.0
21/09:00am 20.5 17.1 10.6 53 5.4 E 19 24 10 13 1021.2 1021.2 0.0
21/08:30am 19.4 15.3 10.1 55 5.0 E 22 28 12 15 1021.3 1021.3 0.0
21/08:00am 18.8 15.2 10.4 58 4.5 E 20 32 11 17 1021.8 1021.8 0.0
21/07:30am 17.3 13.2 10.2 63 3.8 E 22 32 12 17 1021.7 1021.7 0.0
21/07:00am 16.2 11.7 10.1 67 3.2 E 24 32 13 17 1021.8 1021.8 0.0
21/06:30am 14.9 11.7 9.9 72 2.6 E 17 28 9 15 1021.9 1021.9 0.0
21/06:00am 13.3 11.1 9.4 77 2.0 ESE 11 17 6 9 1022.1 1022.1 0.0
21/05:30am 12.9 9.1 9.0 77 2.0 ESE 19 24 10 13 1022.0 1022.0 0.0
21/05:00am 13.2 9.2 9.1 76 2.1 ESE 20 24 11 13 1021.9 1021.9 0.0
21/04:30am 13.6 8.1 9.1 74 2.3 E 28 33 15 18 1021.6 1021.6 0.0
21/04:00am 13.8 9.0 8.8 72 2.5 E 24 32 13 17 1021.7 1021.7 0.0
21/03:30am 13.9 9.4 8.5 70 2.7 ESE 22 28 12 15 1021.8 1021.8 0.0
21/03:00am 14.4 9.5 8.4 67 3.0 ESE 24 32 13 17 1022.1 1022.1 0.0
21/02:30am 14.8 9.5 8.3 65 3.3 E 26 33 14 18 1022.2 1022.2 0.0
21/02:00am 15.1 10.1 8.1 63 3.5 E 24 28 13 15 1022.5 1022.5 0.0
21/01:30am 15.4 10.4 8.2 62 3.6 E 24 32 13 17 1022.7 1022.7 0.0
21/01:00am 15.9 10.9 7.9 59 4.0 ESE 24 32 13 17 1022.7 1022.7 0.0
21/12:30am 15.9 10.9 7.9 59 4.0 ESE 24 30 13 16 1023.2 1023.2 0.0
21/12:00am 16.7 11.7 7.9 56 4.4 ESE 24 32 13 17 1023.5 1023.4 0.0
 
Date/Time
WST
Temp
°C
App
Temp
°C
Dew
Point
°C
Rel
Hum
%
Delta-T
°C
Wind Press
QNH
hPa
Press
MSL
hPa
Rain since
9am
mm
Dir  Spd
km/h
Gust
km/h
Spd
kts
Gust
kts
20/11:30pm 16.7 12.8 8.7 59 4.1 ESE 19 24 10 13 1023.9 1023.8 0.0
20/11:00pm 17.2 13.2 8.9 58 4.3 ESE 20 26 11 14 1023.9 1023.8 0.0
20/10:30pm 17.0 13.7 9.4 61 4.0 ESE 17 22 9 12 1024.2 1024.1 0.0
20/10:00pm 17.5 14.2 9.7 60 4.1 ESE 17 22 9 12 1024.2 1024.1 0.0
20/09:30pm 17.9 14.5 9.3 57 4.5 ESE 17 20 9 11 1024.3 1024.2 0.0
20/09:00pm 15.9 12.9 9.1 64 3.5 SE 15 20 8 11 1024.4 1024.3 0.0
20/08:30pm 16.6 13.6 9.3 62 3.8 S 15 17 8 9 1024.0 1023.9 0.0
20/08:00pm 17.8 14.5 9.4 58 4.4 S 17 19 9 10 1024.0 1023.9 0.0
20/07:30pm 17.9 15.2 10.3 61 4.1 S 15 15 8 8 1023.7 1023.6 0.0
20/07:00pm 18.1 15.7 10.2 60 4.2 S 13 15 7 8 1023.3 1023.3 0.0
20/06:30pm 19.4 17.0 10.1 55 5.0 S 13 15 7 8 1023.1 1023.1 0.0
20/06:00pm 21.3 18.7 10.8 51 5.7 S 15 15 8 8 1022.9 1022.9 0.0
20/05:30pm 22.9 21.1 11.0 47 6.6 S 11 13 6 7 1022.8 1022.8 0.0
20/05:00pm 24.0 21.7 10.3 42 7.5 S 13 17 7 9 1022.8 1022.8 0.0
20/04:30pm 24.7 22.3 10.2 40 8.0 S 13 15 7 8 1022.8 1022.8 0.0
20/04:00pm 25.1 23.5 11.6 42 7.6 SSE 11 17 6 9 1022.8 1022.8 0.0
20/03:30pm 26.2 24.6 11.5 40 8.4 ESE 11 17 6 9 1022.9 1022.9 0.0
20/03:00pm 26.9 23.9 9.3 33 9.7 E 15 22 8 12 1022.7 1022.7 0.0
20/02:30pm 26.9 23.2 9.3 33 9.7 ENE 19 26 10 14 1023.0 1023.0 0.0
20/02:00pm 26.8 24.4 10.1 35 9.3 ENE 13 20 7 11 1023.5 1023.4 0.0
20/01:30pm 26.5 23.9 10.6 37 8.9 ENE 15 22 8 12 1023.8 1023.7 0.0
20/01:00pm 25.8 23.0 10.0 37 8.7 E 15 22 8 12 1024.0 1023.9 0.0
20/12:30pm 25.6 23.3 11.7 42 7.9 ENE 15 20 8 11 1024.6 1024.5 0.0
20/12:00pm 24.4 22.3 11.0 43 7.5 ENE 13 19 7 10 1024.9 1024.8 0.0
20/11:30am 24.1 21.6 11.1 44 7.3 E 15 20 8 11 1025.1 1025.0 0.0
20/11:00am 22.6 19.3 9.4 43 7.1 E 17 20 9 11 1025.5 1025.4 0.0

Other Formats:

Comma delimited format used in spreadsheet applications
http://www.bom.gov.au/fwo/IDW60801/IDW60801.95611.axf

JavaScript Object Notation format (JSON) in row-major order
http://www.bom.gov.au/fwo/IDW60801/IDW60801.95611.json